createdAt,value
2018-12-18T00:02:18.710Z,97039.55
2018-12-18T00:04:48.782Z,97033.18
2018-12-18T00:07:19.296Z,97042.55
2018-12-18T00:09:49.457Z,97042.91
2018-12-18T00:12:19.478Z,97042.51
2018-12-18T00:14:49.677Z,97040.81
2018-12-18T00:17:19.744Z,97030.17
2018-12-18T00:19:49.875Z,97034.97
2018-12-18T00:22:20.064Z,97037.55
2018-12-18T00:24:50.102Z,97037.66
2018-12-18T00:27:20.148Z,97043.77
2018-12-18T00:29:50.507Z,97043.30
2018-12-18T00:32:20.597Z,97044.56
2018-12-18T00:34:50.728Z,97045.88
2018-12-18T00:37:20.832Z,97050.83
2018-12-18T00:39:50.926Z,97050.66
2018-12-18T00:42:20.987Z,97050.20
2018-12-18T00:44:51.093Z,97048.13
2018-12-18T00:47:21.107Z,97057.31
2018-12-18T00:49:51.174Z,97050.98
2018-12-18T00:52:21.265Z,97052.35
2018-12-18T00:54:51.414Z,97060.83
2018-12-18T00:57:21.949Z,97063.09
2018-12-18T00:59:52.027Z,97060.95
2018-12-18T01:02:22.146Z,97063.52
2018-12-18T01:04:52.325Z,97058.09
2018-12-18T01:07:22.443Z,97059.73
2018-12-18T01:09:52.490Z,97061.38
2018-12-18T01:12:22.641Z,97055.03
2018-12-18T01:14:53.555Z,97055.83
2018-12-18T01:17:23.678Z,97058.56
2018-12-18T01:19:53.668Z,97061.26
2018-12-18T01:22:23.821Z,97062.09
2018-12-18T01:24:53.893Z,97064.58
2018-12-18T01:27:23.964Z,97064.20
2018-12-18T01:29:53.983Z,97065.51
2018-12-18T01:32:24.334Z,97060.09
2018-12-18T01:34:54.375Z,97067.52
2018-12-18T01:37:24.447Z,97070.11
2018-12-18T01:39:54.475Z,97076.84
2018-12-18T01:42:24.584Z,97074.73
2018-12-18T01:44:54.848Z,97080.41
2018-12-18T01:47:24.852Z,97084.42
2018-12-18T01:49:54.932Z,97086.16
2018-12-18T01:52:25.052Z,97084.01
2018-12-18T01:54:55.117Z,97084.42
2018-12-18T01:57:25.152Z,97079.94
2018-12-18T01:59:55.153Z,97073.84
2018-12-18T02:02:25.386Z,97084.84
2018-12-18T02:04:55.502Z,97082.70
2018-12-18T02:07:25.593Z,97083.73
2018-12-18T02:09:55.849Z,97087.00
2018-12-18T02:12:25.962Z,97086.83
2018-12-18T02:14:56.111Z,97082.67
2018-12-18T02:17:26.329Z,97075.88
2018-12-18T02:19:56.436Z,97064.93
2018-12-18T02:22:26.548Z,97072.66
2018-12-18T02:24:56.638Z,97077.86
2018-12-18T02:27:26.670Z,97074.13
2018-12-18T02:29:56.678Z,97072.86
2018-12-18T02:32:26.814Z,97079.75
2018-12-18T02:34:56.849Z,97086.63
2018-12-18T02:37:26.954Z,97089.45
2018-12-18T02:39:56.973Z,97096.33
2018-12-18T02:42:26.984Z,97101.47
2018-12-18T02:44:57.429Z,97095.25
2018-12-18T02:47:27.455Z,97100.23
2018-12-18T02:49:57.513Z,97102.95
2018-12-18T02:52:27.626Z,97106.60
2018-12-18T02:54:57.752Z,97106.83
2018-12-18T02:57:27.957Z,97100.89
2018-12-18T03:02:58.860Z,97097.10
2018-12-18T03:05:28.974Z,97098.89
2018-12-18T03:07:59.002Z,97092.38
2018-12-18T03:10:29.487Z,97095.38
2018-12-18T03:12:59.657Z,97088.50
2018-12-18T03:15:30.890Z,97090.65
2018-12-18T03:18:01.024Z,97088.30
2018-12-18T03:20:31.929Z,97080.92
2018-12-18T03:23:03.746Z,97085.28
2018-12-18T03:25:33.886Z,97085.41
2018-12-18T03:28:04.321Z,97084.02
2018-12-18T03:30:34.494Z,97087.15
2018-12-18T03:33:06.226Z,97088.88
2018-12-18T03:35:36.404Z,97086.68
2018-12-18T03:38:07.337Z,97088.78
2018-12-18T03:40:37.413Z,97084.67
2018-12-18T03:43:07.509Z,97085.10
2018-12-18T03:45:37.643Z,97075.80
2018-12-18T03:48:07.749Z,97080.55
2018-12-18T03:50:37.757Z,97084.57
2018-12-18T03:53:07.954Z,97086.54
2018-12-18T03:55:37.971Z,97079.44
2018-12-18T03:58:08.119Z,97075.92
2018-12-18T04:00:38.442Z,97077.23
2018-12-18T04:03:08.625Z,97080.41
2018-12-18T04:05:39.067Z,97089.34
2018-12-18T04:08:09.110Z,97088.59
2018-12-18T04:10:39.253Z,97092.45
2018-12-18T04:13:09.380Z,97090.07
2018-12-18T04:15:39.497Z,97087.80
2018-12-18T04:18:09.828Z,97088.27
2018-12-18T04:20:39.943Z,97097.53
2018-12-18T04:23:10.117Z,97101.81
2018-12-18T04:25:40.162Z,97099.42
2018-12-18T04:28:10.319Z,97101.06
2018-12-18T04:30:40.643Z,97114.13
2018-12-18T04:33:10.742Z,97112.45
2018-12-18T04:35:40.757Z,97105.35
2018-12-18T04:38:10.981Z,97103.24
2018-12-18T04:40:41.497Z,97107.91
2018-12-18T04:43:11.850Z,97102.83
2018-12-18T04:45:41.954Z,97101.19
2018-12-18T04:48:12.301Z,97099.55
2018-12-18T04:50:43.396Z,97097.41
2018-12-18T04:53:13.521Z,97102.45
2018-12-18T04:55:43.697Z,97094.50
2018-12-18T04:58:13.781Z,97096.14
2018-12-18T05:00:43.948Z,97098.58
2018-12-18T05:03:13.973Z,97088.90
2018-12-18T05:05:43.984Z,97088.45
2018-12-18T05:08:14.062Z,97091.48
2018-12-18T05:10:44.162Z,97086.59
2018-12-18T05:13:14.311Z,97091.59
2018-12-18T05:15:44.461Z,97087.94
2018-12-18T05:18:14.543Z,97088.99
2018-12-18T05:20:44.641Z,97081.59
2018-12-18T05:23:14.692Z,97085.75
2018-12-18T05:25:44.740Z,97086.30
2018-12-18T05:28:16.202Z,97092.55
2018-12-18T05:30:46.689Z,97088.65
2018-12-18T05:33:17.062Z,97090.34
2018-12-18T05:35:48.693Z,97101.34
2018-12-18T05:38:18.705Z,97100.46
2018-12-18T05:40:48.734Z,97101.39
2018-12-18T05:43:18.757Z,97104.02
2018-12-18T05:45:48.924Z,97102.58
2018-12-18T05:48:19.316Z,97101.48
2018-12-18T05:50:49.340Z,97109.42
2018-12-18T05:53:19.412Z,97102.24
2018-12-18T05:55:49.472Z,97104.37
2018-12-18T05:58:19.640Z,97108.59
2018-12-18T06:00:49.806Z,97112.82
2018-12-18T06:03:20.303Z,97110.68
2018-12-18T06:05:50.330Z,97111.64
2018-12-18T06:08:20.559Z,97115.08
2018-12-18T06:10:51.598Z,97121.00
2018-12-18T06:13:22.011Z,97117.41
2018-12-18T06:15:52.265Z,97119.58
2018-12-18T06:18:22.545Z,97132.25
2018-12-18T06:20:53.540Z,97133.59
2018-12-18T06:23:23.840Z,97132.82
2018-12-18T06:25:53.877Z,97139.99
2018-12-18T06:28:23.928Z,97142.52
2018-12-18T06:30:54.082Z,97148.78
2018-12-18T06:33:24.109Z,97147.55
2018-12-18T06:35:54.140Z,97153.89
2018-12-18T06:38:24.412Z,97146.40
2018-12-18T06:40:54.445Z,97147.83
2018-12-18T06:43:24.477Z,97152.48
2018-12-18T06:45:54.472Z,97158.50
2018-12-18T06:48:25.686Z,97159.76
2018-12-18T06:50:55.781Z,97159.27
2018-12-18T06:53:25.945Z,97162.24
2018-12-18T06:55:56.215Z,97162.62
2018-12-18T06:58:26.511Z,97163.79
2018-12-18T07:00:57.190Z,97167.59
2018-12-18T07:03:27.494Z,97169.28
2018-12-18T07:05:58.144Z,97175.97
2018-12-18T07:08:28.393Z,97179.91
2018-12-18T07:10:58.415Z,97164.34
2018-12-18T07:13:28.668Z,97172.87
2018-12-18T07:15:58.714Z,97174.20
2018-12-18T07:18:28.738Z,97172.09
2018-12-18T07:20:59.074Z,97174.94
2018-12-18T07:23:31.175Z,97168.16
2018-12-18T07:26:01.224Z,97171.86
2018-12-18T07:28:31.417Z,97170.58
2018-12-18T07:31:01.785Z,97180.58
2018-12-18T07:33:32.134Z,97183.52
2018-12-18T07:36:02.649Z,97179.74
2018-12-18T07:38:32.991Z,97188.66
2018-12-18T07:41:03.099Z,97187.89
2018-12-18T07:43:33.104Z,97168.80
2018-12-18T07:46:03.164Z,97185.89
2018-12-18T07:48:33.589Z,97179.30
2018-12-18T07:51:03.958Z,97186.69
2018-12-18T07:53:35.411Z,97186.17
2018-12-18T07:56:05.795Z,97183.94
2018-12-18T07:58:35.921Z,97183.80
2018-12-18T08:01:05.966Z,97185.42
2018-12-18T08:03:36.126Z,97184.93
2018-12-18T08:06:06.252Z,97183.18
2018-12-18T08:08:37.682Z,97163.30
2018-12-18T08:11:07.716Z,97184.83
2018-12-18T08:13:37.877Z,97186.72
2018-12-18T08:16:08.087Z,97190.81
2018-12-18T08:18:38.417Z,97193.68
2018-12-18T08:21:09.187Z,97196.41
2018-12-18T08:23:39.440Z,97196.30
2018-12-18T08:26:09.489Z,97207.92
2018-12-18T08:28:39.834Z,97196.87
2018-12-18T08:31:09.985Z,97201.12
2018-12-18T08:33:40.008Z,97201.99
2018-12-18T08:36:10.047Z,97197.38
2018-12-18T08:38:40.297Z,97204.98
2018-12-18T08:41:10.352Z,97204.86
2018-12-18T08:43:40.796Z,97199.33
2018-12-18T08:46:10.900Z,97203.84
2018-12-18T08:48:41.089Z,97207.50
2018-12-18T08:51:11.137Z,97217.06
2018-12-18T08:53:41.405Z,97213.89
2018-12-18T08:56:11.501Z,97214.61
2018-12-18T08:58:41.731Z,97211.55
2018-12-18T09:01:11.814Z,97215.25
2018-12-18T09:03:43.102Z,97217.78
2018-12-18T09:06:13.716Z,97219.30
2018-12-18T09:08:44.044Z,97215.52
2018-12-18T09:11:14.188Z,97213.64
2018-12-18T09:13:44.889Z,97206.19
2018-12-18T09:16:20.003Z,97206.56
2018-12-18T09:18:50.028Z,97209.80
2018-12-18T09:21:20.360Z,97205.86
2018-12-18T09:23:51.051Z,97201.02
2018-12-18T09:26:21.144Z,97202.50
2018-12-18T09:28:51.213Z,97203.87
2018-12-18T09:31:21.269Z,97198.77
2018-12-18T09:33:51.707Z,97196.25
2018-12-18T09:36:21.820Z,97191.09
2018-12-18T09:38:57.154Z,97193.52
2018-12-18T09:41:31.308Z,97191.13
2018-12-18T09:44:06.562Z,97184.95
2018-12-18T09:46:37.696Z,97180.73
2018-12-18T09:49:07.797Z,97174.76
2018-12-18T09:51:37.929Z,97166.72
2018-12-18T09:54:07.952Z,97168.83
2018-12-18T09:56:43.606Z,97167.79
2018-12-18T09:59:13.691Z,97161.04
2018-12-18T10:01:43.828Z,97152.02
2018-12-18T10:04:13.888Z,97156.42
2018-12-18T10:06:45.140Z,97152.87
2018-12-18T10:09:15.551Z,97146.97
2018-12-18T10:11:45.604Z,97148.89
2018-12-18T10:14:15.626Z,97140.72
2018-12-18T10:16:45.649Z,97137.82
2018-12-18T10:19:15.666Z,97129.94
2018-12-18T10:21:46.988Z,97134.41
2018-12-18T10:24:17.096Z,97135.57
2018-12-18T10:26:47.143Z,97131.28
2018-12-18T10:29:17.557Z,97123.81
2018-12-18T10:31:47.597Z,97124.77
2018-12-18T10:34:17.705Z,97117.36
2018-12-18T10:36:47.948Z,97115.83
2018-12-18T10:39:18.066Z,97116.20
2018-12-18T10:41:48.080Z,97111.86
2018-12-18T10:44:18.102Z,97100.56
2018-12-18T10:46:48.206Z,97100.88
2018-12-18T10:49:18.272Z,97093.94
2018-12-18T10:51:48.405Z,97087.39
2018-12-18T10:54:18.540Z,97079.72
2018-12-18T10:56:48.581Z,97075.58
2018-12-18T10:59:18.699Z,97071.21
2018-12-18T11:01:48.872Z,97069.67
2018-12-18T11:04:18.912Z,97069.69
2018-12-18T11:06:49.781Z,97066.06
2018-12-18T11:09:21.063Z,97061.58
2018-12-18T11:11:51.083Z,97063.84
2018-12-18T11:14:21.123Z,97055.37
2018-12-18T11:16:51.196Z,97047.25
2018-12-18T11:19:22.122Z,97041.88
2018-12-18T11:21:52.142Z,97046.02
2018-12-18T11:24:22.177Z,97038.13
2018-12-18T11:26:52.700Z,97038.02
2018-12-18T11:29:22.848Z,97036.52
2018-12-18T11:31:52.876Z,97031.98
2018-12-18T11:34:22.960Z,97025.12
2018-12-18T11:36:53.029Z,97020.37
2018-12-18T11:39:23.062Z,97013.33
2018-12-18T11:41:53.138Z,97013.11
2018-12-18T11:44:23.153Z,97009.80
2018-12-18T11:46:53.317Z,97005.83
2018-12-18T11:49:23.361Z,97009.04
2018-12-18T11:51:53.482Z,97005.56
2018-12-18T11:54:23.626Z,96996.64
2018-12-18T11:56:53.741Z,97005.03
2018-12-18T11:59:23.901Z,97004.39
2018-12-18T12:01:54.071Z,97001.75
2018-12-18T12:04:24.205Z,96998.78
2018-12-18T12:06:55.187Z,96993.70
2018-12-18T12:09:25.326Z,96998.52
2018-12-18T12:11:55.505Z,96995.45
2018-12-18T12:14:25.623Z,97002.17
2018-12-18T12:16:55.835Z,96988.77
2018-12-18T12:19:26.754Z,96990.00
2018-12-18T12:21:56.758Z,96986.33
2018-12-18T12:24:26.802Z,96985.59
2018-12-18T12:27:01.052Z,96991.85
2018-12-18T12:29:31.085Z,96986.80
2018-12-18T12:32:01.152Z,96984.61
2018-12-18T12:34:31.206Z,96989.67
2018-12-18T12:37:01.232Z,96993.50
2018-12-18T12:39:31.341Z,96997.02
2018-12-18T12:42:01.420Z,96997.58
2018-12-18T12:44:31.470Z,96998.86
2018-12-18T12:47:01.551Z,96997.19
2018-12-18T12:49:37.041Z,96997.11
2018-12-18T12:52:07.137Z,96994.55
2018-12-18T12:54:37.177Z,96993.19
2018-12-18T12:57:07.329Z,96995.78
2018-12-18T12:59:37.385Z,96996.44
2018-12-18T13:02:08.348Z,96997.63
2018-12-18T13:04:39.830Z,96995.56
2018-12-18T13:07:10.906Z,96991.47
2018-12-18T13:09:42.121Z,96997.18
2018-12-18T13:12:12.262Z,96999.11
2018-12-18T13:14:42.329Z,97000.92
2018-12-18T13:17:12.320Z,96992.46
2018-12-18T13:19:42.366Z,96990.62
2018-12-18T13:22:12.482Z,96992.52
2018-12-18T13:24:43.409Z,96992.95
2018-12-18T13:27:13.537Z,96992.30
2018-12-18T13:29:47.428Z,96990.63
2018-12-18T13:32:17.547Z,96987.98
2018-12-18T13:34:47.773Z,96981.61
2018-12-18T13:37:17.898Z,96978.97
2018-12-18T13:39:48.339Z,96974.73
2018-12-18T13:42:18.386Z,96971.47
2018-12-18T13:44:48.420Z,96975.36
2018-12-18T13:47:18.455Z,96976.13
2018-12-18T13:49:48.608Z,96974.12
2018-12-18T13:52:19.092Z,96969.93
2018-12-18T13:54:49.110Z,96970.00
2018-12-18T13:57:19.190Z,96966.43
2018-12-18T13:59:49.963Z,96972.67
2018-12-18T14:02:20.202Z,96974.40
2018-12-18T14:04:50.602Z,96972.84
2018-12-18T14:07:20.857Z,96969.64
2018-12-18T14:09:51.128Z,96960.56
2018-12-18T14:12:23.242Z,96955.66
2018-12-18T14:14:53.432Z,96949.41
2018-12-18T14:17:23.505Z,96947.16
2018-12-18T14:19:53.709Z,96942.97
2018-12-18T14:22:23.837Z,96939.94
2018-12-18T14:24:53.953Z,96938.61
2018-12-18T14:27:24.074Z,96931.88
2018-12-18T14:29:54.242Z,96936.75
2018-12-18T14:32:24.310Z,96940.83
2018-12-18T14:34:54.373Z,96936.75
2018-12-18T14:37:24.388Z,96925.20
2018-12-18T14:39:54.531Z,96925.97
2018-12-18T14:42:24.613Z,96922.44
2018-12-18T14:44:54.689Z,96926.78
2018-12-18T14:47:24.880Z,96927.97
2018-12-18T14:49:54.969Z,96929.36
2018-12-18T14:52:25.007Z,96932.15
2018-12-18T14:54:55.063Z,96934.96
2018-12-18T14:57:25.173Z,96938.42
2018-12-18T14:59:55.217Z,96932.64
2018-12-18T15:02:25.405Z,96941.08
2018-12-18T15:04:55.434Z,96947.11
2018-12-18T15:07:26.428Z,96942.13
2018-12-18T15:09:56.469Z,96944.66
2018-12-18T15:12:27.582Z,96937.92
2018-12-18T15:14:57.601Z,96944.27
2018-12-18T15:17:28.417Z,96940.80
2018-12-18T15:19:58.440Z,96939.53
2018-12-18T15:22:28.445Z,96935.50
2018-12-18T15:24:58.492Z,96937.48
2018-12-18T15:27:29.059Z,96937.69
2018-12-18T15:29:59.085Z,96938.84
2018-12-18T15:32:29.445Z,96934.00
2018-12-18T15:34:59.629Z,96943.34
2018-12-18T15:37:29.728Z,96944.98
2018-12-18T15:39:59.763Z,96936.96
2018-12-18T15:42:29.777Z,96938.59
2018-12-18T15:44:59.827Z,96937.31
2018-12-18T15:47:30.242Z,96936.59
2018-12-18T15:50:00.251Z,96929.25
2018-12-18T15:52:31.261Z,96929.84
2018-12-18T15:55:01.461Z,96930.31
2018-12-18T15:57:31.561Z,96926.54
2018-12-18T16:00:01.713Z,96930.91
2018-12-18T16:02:31.903Z,96927.80
2018-12-18T16:05:02.195Z,96925.81
2018-12-18T16:07:32.212Z,96920.33
2018-12-18T16:10:02.223Z,96920.44
2018-12-18T16:12:32.268Z,96924.77
2018-12-18T16:15:02.456Z,96920.23
2018-12-18T16:17:32.471Z,96919.41
2018-12-18T16:20:02.493Z,96919.98
2018-12-18T16:22:32.607Z,96916.89
2018-12-18T16:25:02.705Z,96916.48
2018-12-18T16:27:32.962Z,96916.69
2018-12-18T16:30:03.057Z,96916.92
2018-12-18T16:32:33.177Z,96914.11
2018-12-18T16:35:03.397Z,96917.59
2018-12-18T16:37:33.495Z,96915.13
2018-12-18T16:40:03.866Z,96918.08
2018-12-18T16:42:33.963Z,96913.17
2018-12-18T16:45:04.326Z,96905.59
2018-12-18T16:47:34.477Z,96913.02
2018-12-18T16:50:04.751Z,96912.38
2018-12-18T16:52:34.903Z,96914.45
2018-12-18T16:55:05.167Z,96913.44
2018-12-18T16:57:35.275Z,96913.32
2018-12-18T17:00:19.521Z,96918.44
2018-12-18T17:02:49.590Z,96917.68
2018-12-18T17:05:20.470Z,96914.37
2018-12-18T17:07:52.755Z,96903.12
2018-12-18T17:10:22.855Z,96901.91
2018-12-18T17:12:56.084Z,96907.24
2018-12-18T17:15:26.169Z,96907.88
2018-12-18T17:17:56.184Z,96911.84
2018-12-18T17:20:26.274Z,96910.17
2018-12-18T17:22:56.295Z,96919.57
2018-12-18T17:25:26.317Z,96914.19
2018-12-18T17:27:56.329Z,96916.91
2018-12-18T17:30:26.433Z,96920.09
2018-12-18T17:32:56.436Z,96925.28
2018-12-18T17:35:26.543Z,96920.33
2018-12-18T17:40:56.889Z,96907.44
2018-12-18T17:43:27.208Z,96911.77
2018-12-18T17:45:57.591Z,96902.28
2018-12-18T17:48:27.652Z,96909.00
2018-12-18T17:50:57.701Z,96903.17
2018-12-18T17:53:28.295Z,96894.89
2018-12-18T17:55:58.369Z,96895.00
2018-12-18T17:58:28.541Z,96892.52
2018-12-18T18:00:58.996Z,96887.48
2018-12-18T18:03:29.684Z,96890.13
2018-12-18T18:05:59.790Z,96892.79
2018-12-18T18:08:29.854Z,96893.58
2018-12-18T18:11:00.852Z,96892.75
2018-12-18T18:13:30.958Z,96894.05
2018-12-18T18:16:01.070Z,96888.25
2018-12-18T18:18:31.211Z,96892.49
2018-12-18T18:21:01.253Z,96886.19
2018-12-18T18:23:31.824Z,96896.12
2018-12-18T18:26:02.198Z,96894.48
2018-12-18T18:28:32.285Z,96888.35
2018-12-18T18:34:03.307Z,96891.72
2018-12-18T18:36:35.099Z,96893.02
2018-12-18T18:39:07.980Z,96886.69
2018-12-18T18:41:39.477Z,96879.59
2018-12-18T18:44:09.597Z,96877.02
2018-12-18T18:46:40.427Z,96881.69
2018-12-18T18:49:10.474Z,96880.42
2018-12-18T18:51:41.423Z,96887.34
2018-12-18T18:54:11.887Z,96878.20
2018-12-18T18:56:42.185Z,96881.22
2018-12-18T18:59:12.265Z,96893.51
2018-12-18T19:01:42.508Z,96886.58
2018-12-18T19:04:13.704Z,96879.22
2018-12-18T19:06:45.503Z,96882.77
2018-12-18T19:09:15.751Z,96881.94
2018-12-18T19:11:45.787Z,96879.88
2018-12-18T19:14:15.834Z,96873.12
2018-12-18T19:16:46.086Z,96866.98
2018-12-18T19:19:18.225Z,96866.19
2018-12-18T19:21:48.841Z,96874.95
2018-12-18T19:24:19.344Z,96872.10
2018-12-18T19:26:49.411Z,96874.58
2018-12-18T19:29:19.497Z,96875.00
2018-12-18T19:31:49.566Z,96868.20
2018-12-18T19:34:19.781Z,96869.84
2018-12-18T19:36:50.300Z,96873.23
2018-12-18T19:39:20.985Z,96874.62
2018-12-18T19:41:51.041Z,96874.31
2018-12-18T19:44:21.835Z,96869.73
2018-12-18T19:46:52.783Z,96878.34
2018-12-18T19:49:23.231Z,96870.84
2018-12-18T19:51:57.176Z,96871.09
2018-12-18T19:54:29.109Z,96862.71
2018-12-18T19:56:59.721Z,96869.48
2018-12-18T19:59:29.933Z,96867.13
2018-12-18T20:02:00.996Z,96874.66
2018-12-18T20:04:31.839Z,96875.89
2018-12-18T20:07:02.070Z,96866.21
2018-12-18T20:09:33.095Z,96866.17
2018-12-18T20:12:04.212Z,96861.22
2018-12-18T20:14:34.531Z,96862.51
2018-12-18T20:17:06.277Z,96854.16
2018-12-18T20:19:36.900Z,96846.97
2018-12-18T20:22:07.745Z,96841.48
2018-12-18T20:24:38.212Z,96841.44
2018-12-18T20:27:08.608Z,96840.60
2018-12-18T20:32:18.717Z,96841.79
2018-12-18T20:34:49.020Z,96835.61
2018-12-18T20:37:19.384Z,96840.19
2018-12-18T20:39:49.589Z,96839.31
2018-12-18T20:42:20.081Z,96844.45
2018-12-18T20:44:51.911Z,96842.50
2018-12-18T20:47:22.316Z,96838.94
2018-12-18T20:49:55.898Z,96842.16
2018-12-18T20:52:27.442Z,96838.94
2018-12-18T20:54:57.453Z,96842.30
2018-12-18T20:57:28.042Z,96838.17
2018-12-18T20:59:58.052Z,96838.07
2018-12-18T21:02:28.947Z,96831.86
2018-12-18T21:05:00.204Z,96827.19
2018-12-18T21:07:30.524Z,96826.45
2018-12-18T21:10:00.574Z,96826.58
2018-12-18T21:12:30.661Z,96820.50
2018-12-18T21:15:00.886Z,96816.38
2018-12-18T21:17:31.003Z,96818.13
2018-12-18T21:20:01.145Z,96817.70
2018-12-18T21:22:32.020Z,96817.22
2018-12-18T21:25:02.820Z,96821.05
2018-12-18T21:27:33.822Z,96818.99
2018-12-18T21:30:04.178Z,96816.91
2018-12-18T21:32:34.504Z,96813.55
2018-12-18T21:35:05.798Z,96806.30
2018-12-18T21:37:35.838Z,96807.10
2018-12-18T21:40:07.497Z,96808.04
2018-12-18T21:42:37.537Z,96798.38
2018-12-18T21:45:07.716Z,96802.91
2018-12-18T21:47:37.742Z,96798.69
2018-12-18T21:50:08.712Z,96798.28
2018-12-18T21:52:38.758Z,96795.48
2018-12-18T21:55:09.753Z,96792.65
2018-12-18T21:57:41.773Z,96788.11
2018-12-18T22:00:14.013Z,96789.92
2018-12-18T22:05:44.125Z,96781.23
2018-12-18T22:08:14.362Z,96786.28
2018-12-18T22:10:44.361Z,96784.16
2018-12-18T22:13:14.656Z,96780.67
2018-12-18T22:15:44.751Z,96778.00
2018-12-18T22:18:14.901Z,96772.83
2018-12-18T22:20:45.292Z,96770.19
2018-12-18T22:23:15.302Z,96773.00
2018-12-18T22:25:45.590Z,96774.61
2018-12-18T22:28:16.093Z,96770.70
2018-12-18T22:30:46.781Z,96762.63
2018-12-18T22:33:16.780Z,96757.80
2018-12-18T22:35:46.957Z,96761.16
2018-12-18T22:38:16.987Z,96760.69
2018-12-18T22:40:47.036Z,96754.83
2018-12-18T22:43:17.025Z,96750.26
2018-12-18T22:45:47.113Z,96748.62
2018-12-18T22:48:17.121Z,96748.23
2018-12-18T22:50:47.280Z,96746.56
2018-12-18T22:53:17.296Z,96735.28
2018-12-18T22:55:47.616Z,96731.09
2018-12-18T22:58:17.927Z,96720.55
2018-12-18T23:00:53.350Z,96713.50
2018-12-18T23:03:24.121Z,96712.70
2018-12-18T23:05:54.950Z,96708.94
2018-12-18T23:08:25.031Z,96710.53
2018-12-18T23:10:55.345Z,96704.73
2018-12-18T23:13:25.450Z,96703.83
2018-12-18T23:15:55.520Z,96691.41
2018-12-18T23:18:25.545Z,96677.87
2018-12-18T23:20:55.579Z,96675.86
2018-12-18T23:23:25.753Z,96671.25
2018-12-18T23:25:55.861Z,96670.03
2018-12-18T23:28:25.953Z,96663.03
2018-12-18T23:30:55.965Z,96659.17
2018-12-18T23:33:25.993Z,96654.31
2018-12-18T23:35:56.165Z,96651.69
2018-12-18T23:38:26.963Z,96646.61
2018-12-18T23:40:57.025Z,96632.03
2018-12-18T23:43:27.250Z,96626.70
2018-12-18T23:45:57.265Z,96621.12
2018-12-18T23:48:27.392Z,96612.38
2018-12-18T23:50:57.669Z,96600.69
2018-12-18T23:53:27.989Z,96598.04
2018-12-18T23:55:58.023Z,96598.04
2018-12-18T23:58:28.061Z,96585.81
